Time;durP1;ratioP1;P1;durP2;ratioP2;P2;SDS_P1;SDS_P2;PMS_P1;PMS_P2;Temp;Humidity;BMP_temperature;BMP_pressure;BME280_temperature;BME280_humidity;BME280_pressure;Samples;Min_cycle;Max_cycle;Signal;HPM_P1;HPM_P2
2022/06/17 00:01:06;;;;;;;5.72;3.10;;;23.80;63.70;;;;;;5033637;28;20025;-70
2022/06/17 00:03:33;;;;;;;6.68;3.22;;;23.80;63.20;;;;;;5033179;28;20155;-69
2022/06/17 00:06:02;;;;;;;6.75;3.03;;;23.80;63.50;;;;;;5015659;28;20182;-68
2022/06/17 00:08:31;;;;;;;4.93;2.60;;;23.70;63.60;;;;;;5033251;28;20120;-68
2022/06/17 00:10:57;;;;;;;10.75;2.88;;;23.70;63.80;;;;;;5033201;28;20025;-68
2022/06/17 00:13:24;;;;;;;5.07;2.78;;;23.70;63.90;;;;;;5033308;28;20136;-68
2022/06/17 00:15:51;;;;;;;4.75;2.83;;;23.70;64.10;;;;;;5033343;28;20022;-68
2022/06/17 00:18:17;;;;;;;6.60;3.22;;;23.70;64.20;;;;;;5033290;28;20025;-68
2022/06/17 00:20:44;;;;;;;3.85;2.85;;;23.70;64.20;;;;;;5033195;28;20014;-70
2022/06/17 00:23:15;;;;;;;5.03;2.60;;;23.70;64.30;;;;;;5029547;28;20021;-68
2022/06/17 00:25:42;;;;;;;5.93;2.85;;;23.70;64.30;;;;;;5024052;28;20026;-67
2022/06/17 00:28:13;;;;;;;4.90;2.75;;;23.70;64.40;;;;;;5029804;28;20043;-67
2022/06/17 00:30:40;;;;;;;6.88;2.97;;;23.60;64.60;;;;;;5030239;28;20025;-67
2022/06/17 00:33:06;;;;;;;6.88;3.25;;;23.60;64.80;;;;;;5031391;28;20057;-67
2022/06/17 00:35:38;;;;;;;7.55;2.90;;;23.50;64.90;;;;;;5031419;28;20100;-68
2022/06/17 00:38:04;;;;;;;7.40;3.08;;;23.50;65.20;;;;;;5032793;28;20022;-68
2022/06/17 00:40:33;;;;;;;4.22;2.80;;;23.50;65.20;;;;;;5014823;28;20026;-68
2022/06/17 00:43:06;;;;;;;7.13;3.38;;;23.50;65.20;;;;;;5015299;28;20402;-68
2022/06/17 00:45:37;;;;;;;9.18;3.30;;;23.40;65.20;;;;;;5032961;28;20017;-68
2022/06/17 00:48:11;;;;;;;5.15;2.67;;;23.40;65.50;;;;;;5032984;28;20068;-71
2022/06/17 00:50:50;;;;;;;4.35;2.83;;;23.40;65.60;;;;;;5032992;28;20017;-71
2022/06/17 00:53:17;;;;;;;6.75;2.92;;;23.40;65.40;;;;;;5032676;28;20033;-69
2022/06/17 00:55:53;;;;;;;5.65;3.17;;;23.40;65.30;;;;;;5032818;28;20021;-71
2022/06/17 00:58:26;;;;;;;6.20;2.90;;;23.40;65.50;;;;;;5015279;28;20049;-68
2022/06/17 01:00:54;;;;;;;7.10;2.90;;;23.40;65.60;;;;;;5032736;28;20014;-68
2022/06/17 01:03:32;;;;;;;6.28;2.80;;;23.30;65.70;;;;;;5033123;28;20096;-70
2022/06/17 01:06:19;;;;;;;5.15;2.88;;;23.30;65.70;;;;;;5032641;28;20041;-71
2022/06/17 01:11:38;;;;;;;4.95;3.05;;;23.30;65.90;;;;;;5033089;28;20044;-71
2022/06/17 01:14:06;;;;;;;7.75;2.70;;;23.20;65.90;;;;;;5032942;28;20047;-71
2022/06/17 01:16:35;;;;;;;3.97;2.85;;;23.20;65.90;;;;;;5032876;28;20096;-69
2022/06/17 01:19:08;;;;;;;6.63;2.60;;;23.20;66.00;;;;;;5032782;28;20109;-70
2022/06/17 01:21:43;;;;;;;6.82;3.00;;;23.20;66.40;;;;;;5032244;28;20021;-71
2022/06/17 01:24:10;;;;;;;5.38;2.33;;;23.10;66.30;;;;;;5032650;28;20033;-70
2022/06/17 01:26:36;;;;;;;6.57;3.22;;;23.10;66.40;;;;;;5032796;28;20025;-68
2022/06/17 01:29:02;;;;;;;5.55;2.47;;;23.10;66.70;;;;;;5032992;28;20101;-68
2022/06/17 01:31:28;;;;;;;5.32;2.80;;;23.10;66.80;;;;;;5032506;28;20446;-70
2022/06/17 01:33:54;;;;;;;7.35;3.10;;;23.10;66.50;;;;;;5032407;28;20228;-71
2022/06/17 01:36:25;;;;;;;5.32;2.92;;;23.10;66.50;;;;;;5032229;28;20128;-71
2022/06/17 01:38:56;;;;;;;4.85;3.05;;;23.00;66.50;;;;;;5032538;28;20029;-70
2022/06/17 01:41:29;;;;;;;7.95;2.85;;;23.10;66.40;;;;;;5035344;28;20061;-70
2022/06/17 01:44:17;;;;;;;9.20;3.20;;;23.00;66.60;;;;;;5036206;28;20101;-71
2022/06/17 01:46:45;;;;;;;7.85;3.70;;;23.00;66.90;;;;;;5035871;28;20028;-71
2022/06/17 01:49:35;;;;;;;5.72;3.00;;;23.00;66.90;;;;;;5018292;28;20026;-71
2022/06/17 01:52:03;;;;;;;5.10;3.13;;;23.00;67.00;;;;;;5017681;28;20022;-70
2022/06/17 01:54:41;;;;;;;6.53;3.13;;;22.90;67.10;;;;;;5035869;28;20029;-71
2022/06/17 01:57:09;;;;;;;5.10;3.00;;;22.90;67.20;;;;;;5035786;28;20017;-70
2022/06/17 01:59:45;;;;;;;9.07;3.47;;;22.90;67.20;;;;;;5017901;28;20022;-71
2022/06/17 02:02:13;;;;;;;3.97;2.95;;;22.90;67.80;;;;;;5035653;28;20029;-71
2022/06/17 02:04:43;;;;;;;8.52;2.85;;;22.90;67.50;;;;;;5035804;28;20017;-71
2022/06/17 02:07:31;;;;;;;5.07;3.30;;;22.90;67.30;;;;;;5035410;28;20067;-70
2022/06/17 02:09:58;;;;;;;4.53;2.85;;;22.90;67.30;;;;;;5035654;28;20026;-70
2022/06/17 02:12:24;;;;;;;5.05;3.55;;;22.90;67.30;;;;;;5035545;28;20045;-71
2022/06/17 02:14:51;;;;;;;5.18;3.00;;;22.90;67.60;;;;;;5035552;28;20463;-71
2022/06/17 02:17:17;;;;;;;6.22;3.28;;;22.80;67.90;;;;;;5035411;28;20052;-72
2022/06/17 02:19:45;;;;;;;5.80;2.97;;;22.80;67.70;;;;;;5035129;28;20467;-71
2022/06/17 02:22:19;;;;;;;6.63;3.10;;;22.80;67.80;;;;;;5035273;28;20034;-71
2022/06/17 02:24:49;;;;;;;4.88;2.83;;;22.70;67.80;;;;;;5035267;28;20036;-71
2022/06/17 02:27:15;;;;;;;5.72;2.88;;;22.70;67.80;;;;;;5035256;28;20055;-71
2022/06/17 02:29:43;;;;;;;6.75;3.40;;;22.80;67.80;;;;;;5035236;28;20021;-70
2022/06/17 02:32:10;;;;;;;8.18;3.22;;;22.70;67.70;;;;;;5035070;28;20025;-70
2022/06/17 02:34:51;;;;;;;7.13;2.70;;;22.70;67.70;;;;;;5034821;28;20029;-71
2022/06/17 02:37:18;;;;;;;5.78;2.90;;;22.70;67.80;;;;;;5035083;28;20466;-71
2022/06/17 02:39:48;;;;;;;6.10;3.10;;;22.70;67.80;;;;;;5035153;28;20061;-71
2022/06/17 02:42:40;;;;;;;5.28;2.70;;;22.70;67.80;;;;;;5034727;28;20426;-71
2022/06/17 02:45:16;;;;;;;8.95;3.28;;;22.70;67.80;;;;;;5030694;28;20037;-71
2022/06/17 02:47:42;;;;;;;5.38;3.03;;;22.70;68.00;;;;;;5035137;28;20034;-69
2022/06/17 02:50:18;;;;;;;7.57;3.42;;;22.70;67.80;;;;;;5034535;28;20364;-68
2022/06/17 02:52:44;;;;;;;5.45;2.90;;;22.70;67.80;;;;;;5034507;28;20033;-68
2022/06/17 02:55:19;;;;;;;6.25;2.58;;;22.60;68.10;;;;;;5034791;28;20029;-70
2022/06/17 02:57:47;;;;;;;7.35;3.10;;;22.60;68.00;;;;;;5034586;28;20022;-68
2022/06/17 03:00:20;;;;;;;6.35;2.85;;;22.60;67.90;;;;;;5034772;28;20082;-68
2022/06/17 03:02:53;;;;;;;7.03;3.25;;;22.60;68.00;;;;;;5034484;28;20467;-70
2022/06/17 03:05:29;;;;;;;5.68;2.88;;;22.60;68.30;;;;;;5034410;28;20437;-70
2022/06/17 03:07:56;;;;;;;6.28;3.63;;;22.60;68.10;;;;;;5034390;28;20059;-68
2022/06/17 03:10:30;;;;;;;5.53;3.22;;;22.60;67.90;;;;;;5034292;28;20428;-67
2022/06/17 03:13:01;;;;;;;4.78;2.80;;;22.60;67.90;;;;;;5034224;28;20475;-71
2022/06/17 03:15:27;;;;;;;5.22;3.08;;;22.60;68.10;;;;;;5034420;28;20025;-68
2022/06/17 03:17:53;;;;;;;7.25;2.33;;;22.60;68.70;;;;;;5033751;28;20025;-70
2022/06/17 03:20:33;;;;;;;5.65;2.63;;;22.60;68.30;;;;;;5034279;28;20445;-68
2022/06/17 03:23:07;;;;;;;3.53;2.70;;;22.50;68.20;;;;;;5033983;28;20455;-68
2022/06/17 03:26:08;;;;;;;7.80;3.10;;;22.50;68.50;;;;;;5034404;28;20040;-68
2022/06/17 03:28:48;;;;;;;4.93;3.05;;;22.50;68.20;;;;;;4934692;29;20043;-71
2022/06/17 03:31:29;;;;;;;6.95;2.67;;;22.50;68.20;;;;;;5022989;28;20426;-71
2022/06/17 03:34:00;;;;;;;6.00;3.17;;;22.50;68.30;;;;;;5033551;28;20026;-70
2022/06/17 03:36:54;;;;;;;4.00;2.78;;;22.50;68.30;;;;;;5034021;28;20167;-71
2022/06/17 03:39:29;;;;;;;6.32;3.42;;;22.50;68.20;;;;;;5030628;28;20040;-72
2022/06/17 03:42:04;;;;;;;6.50;2.63;;;21.90;69.30;;;;;;5033501;28;20094;-71
2022/06/17 03:44:36;;;;;;;5.18;2.80;;;21.60;70.40;;;;;;5033725;28;20025;-70
2022/06/17 03:47:09;;;;;;;4.65;2.78;;;21.50;70.90;;;;;;5033570;28;20493;-71
2022/06/17 03:49:43;;;;;;;4.18;2.88;;;21.50;71.40;;;;;;5033737;28;20502;-70
2022/06/17 03:52:26;;;;;;;7.18;2.90;;;21.40;71.80;;;;;;5033571;28;20112;-71
2022/06/17 03:54:53;;;;;;;8.75;3.50;;;21.20;72.20;;;;;;5033373;28;20040;-71
2022/06/17 03:57:18;;;;;;;4.55;3.40;;;21.10;72.50;;;;;;5015921;28;20485;-72
2022/06/17 03:59:49;;;;;;;5.82;2.97;;;21.00;72.80;;;;;;5033462;28;20041;-71
2022/06/17 04:02:17;;;;;;;8.15;3.10;;;21.00;73.10;;;;;;5033164;28;20458;-71
2022/06/17 04:04:47;;;;;;;4.18;2.40;;;21.00;72.80;;;;;;5033446;28;20025;-70
2022/06/17 04:07:13;;;;;;;7.88;3.15;;;21.00;73.20;;;;;;5033705;28;20021;-67
2022/06/17 04:09:43;;;;;;;7.20;3.15;;;20.90;73.00;;;;;;5033326;28;20022;-65
2022/06/17 04:12:11;;;;;;;10.05;3.03;;;20.80;73.10;;;;;;5032331;28;20029;-65
2022/06/17 04:15:07;;;;;;;3.70;2.58;;;20.90;74.20;;;;;;5032420;28;20104;-65
2022/06/17 04:17:51;;;;;;;6.53;3.40;;;21.00;73.60;;;;;;5033249;28;20018;-65
2022/06/17 04:20:17;;;;;;;9.30;2.97;;;21.00;73.00;;;;;;5033148;28;20026;-64
2022/06/17 04:22:46;;;;;;;5.57;2.75;;;20.90;73.00;;;;;;5033117;28;20029;-65
2022/06/17 04:25:18;;;;;;;5.78;2.80;;;21.00;74.00;;;;;;5033385;28;20101;-65
2022/06/17 04:27:57;;;;;;;5.75;2.63;;;20.90;74.10;;;;;;5032653;28;20057;-65
2022/06/17 04:30:27;;;;;;;3.28;2.42;;;20.90;74.00;;;;;;5031539;28;20079;-65
2022/06/17 04:32:57;;;;;;;5.97;2.80;;;20.90;74.10;;;;;;5032541;28;20021;-67
2022/06/17 04:35:23;;;;;;;5.25;2.95;;;20.90;73.80;;;;;;5032979;28;20467;-67
2022/06/17 04:37:48;;;;;;;5.85;2.58;;;20.80;73.70;;;;;;5033009;28;20020;-65
2022/06/17 04:40:34;;;;;;;6.60;3.10;;;20.80;74.20;;;;;;5032398;28;20437;-66
2022/06/17 04:43:03;;;;;;;8.75;3.25;;;20.80;73.80;;;;;;5032758;28;20040;-65
2022/06/17 04:45:29;;;;;;;5.05;3.10;;;20.80;74.20;;;;;;5032683;28;20083;-65
2022/06/17 04:47:55;;;;;;;7.90;2.83;;;20.70;75.00;;;;;;5031739;28;20711;-65
2022/06/17 04:50:24;;;;;;;4.75;2.45;;;20.70;75.20;;;;;;5032853;28;20049;-66
2022/06/17 04:52:51;;;;;;;7.25;3.10;;;20.80;75.50;;;;;;5032737;28;20042;-66
2022/06/17 04:55:34;;;;;;;7.07;3.45;;;20.80;75.00;;;;;;5032698;28;20014;-64
2022/06/17 04:58:00;;;;;;;6.20;3.25;;;20.70;75.20;;;;;;5016802;28;20018;-65
2022/06/17 05:00:27;;;;;;;6.55;2.60;;;20.70;75.60;;;;;;5030026;28;20471;-70
2022/06/17 05:02:53;;;;;;;6.93;2.90;;;20.80;75.10;;;;;;5026831;28;20046;-70
2022/06/17 05:05:31;;;;;;;6.85;3.00;;;20.80;75.10;;;;;;5030298;28;20072;-70
2022/06/17 05:07:57;;;;;;;6.03;2.88;;;20.70;75.10;;;;;;5018913;28;20036;-69
2022/06/17 05:10:30;;;;;;;5.85;3.17;;;20.80;75.30;;;;;;5032825;28;20029;-71
2022/06/17 05:12:59;;;;;;;7.90;3.28;;;20.80;75.30;;;;;;5032287;28;20095;-68
2022/06/17 05:15:25;;;;;;;7.30;3.22;;;20.80;75.30;;;;;;5030691;28;20556;-68
2022/06/17 05:17:51;;;;;;;5.30;2.80;;;20.90;75.80;;;;;;5036364;28;20402;-67
2022/06/17 05:20:20;;;;;;;7.13;3.70;;;20.90;75.90;;;;;;5034382;28;20025;-69
2022/06/17 05:23:04;;;;;;;6.88;3.00;;;20.90;75.40;;;;;;5016199;28;20487;-68
2022/06/17 05:25:33;;;;;;;8.15;3.05;;;20.80;75.50;;;;;;5036101;28;20037;-65
2022/06/17 05:27:59;;;;;;;6.32;3.20;;;20.80;76.00;;;;;;5035890;28;20022;-70
2022/06/17 05:30:26;;;;;;;6.15;2.80;;;20.90;77.00;;;;;;5026057;28;20025;-65
2022/06/17 05:32:54;;;;;;;5.38;3.00;;;21.00;75.80;;;;;;5011238;28;20124;-70
2022/06/17 05:35:21;;;;;;;7.22;3.08;;;20.90;76.40;;;;;;5035540;28;20022;-69
2022/06/17 05:37:47;;;;;;;5.40;2.92;;;21.00;76.00;;;;;;5034210;28;20087;-65
2022/06/17 05:40:14;;;;;;;9.25;2.83;;;21.00;75.80;;;;;;5035731;28;20109;-71
2022/06/17 05:42:42;;;;;;;7.95;2.92;;;21.00;75.80;;;;;;5033875;28;20041;-71
2022/06/17 05:45:10;;;;;;;8.02;3.25;;;21.10;75.10;;;;;;5035806;28;20018;-71
2022/06/17 05:47:36;;;;;;;9.45;3.53;;;21.20;74.90;;;;;;5034331;28;20033;-69
2022/06/17 05:50:01;;;;;;;10.48;3.38;;;21.20;75.30;;;;;;5035261;28;20026;-71
2022/06/17 05:52:27;;;;;;;8.05;3.40;;;21.30;75.40;;;;;;5034722;28;20029;-65
2022/06/17 05:55:00;;;;;;;9.70;3.70;;;21.20;75.10;;;;;;5035880;28;20029;-64
2022/06/17 05:57:26;;;;;;;5.68;3.00;;;21.20;75.10;;;;;;5035271;28;20037;-64
2022/06/17 05:59:51;;;;;;;8.43;3.58;;;21.30;75.10;;;;;;5034981;28;20030;-65
2022/06/17 06:02:17;;;;;;;6.30;3.30;;;21.40;74.60;;;;;;5030401;28;20109;-65
2022/06/17 06:04:42;;;;;;;11.98;3.42;;;21.30;74.80;;;;;;5025304;28;20549;-66
2022/06/17 06:07:09;;;;;;;3.58;1.52;;;21.20;75.40;;;;;;5034343;28;20028;-65
2022/06/17 06:09:34;;;;;;;7.60;3.17;;;21.40;76.50;;;;;;5033284;28;20056;-65
2022/06/17 06:12:00;;;;;;;2.88;1.67;;;21.60;74.60;;;;;;5033712;28;20034;-69
2022/06/17 06:14:25;;;;;;;6.15;2.28;;;21.70;75.00;;;;;;5035251;28;20036;-72
2022/06/17 06:16:51;;;;;;;7.70;3.45;;;21.90;75.50;;;;;;5034649;28;20378;-71
2022/06/17 06:19:16;;;;;;;6.78;3.10;;;21.90;72.80;;;;;;5034897;28;20033;-71
2022/06/17 06:21:42;;;;;;;6.47;2.45;;;22.00;74.00;;;;;;5035164;28;20025;-72
2022/06/17 06:24:08;;;;;;;10.20;2.70;;;22.20;73.70;;;;;;5034155;28;20032;-70
2022/06/17 06:26:33;;;;;;;97.20;9.10;;;22.10;73.10;;;;;;5015515;28;20021;-69
2022/06/17 06:28:59;;;;;;;4.97;2.40;;;22.20;73.50;;;;;;5015455;28;20029;-71
2022/06/17 06:31:36;;;;;;;3.72;2.25;;;22.40;73.60;;;;;;5028128;28;20033;-72
2022/06/17 06:34:03;;;;;;;4.25;2.42;;;22.60;73.60;;;;;;5034287;28;20111;-72
2022/06/17 06:36:29;;;;;;;5.18;2.38;;;22.60;73.20;;;;;;5031585;28;20113;-72
2022/06/17 06:38:55;;;;;;;5.15;2.30;;;22.70;73.10;;;;;;5034794;28;20112;-72
2022/06/17 06:41:21;;;;;;;7.35;2.40;;;22.80;73.00;;;;;;5033947;28;20479;-72
2022/06/17 06:43:47;;;;;;;6.18;2.25;;;22.80;72.70;;;;;;5033628;28;20021;-71
2022/06/17 06:46:16;;;;;;;10.07;2.40;;;22.90;72.50;;;;;;5032601;28;20026;-71
2022/06/17 06:48:43;;;;;;;8.38;2.40;;;23.00;71.90;;;;;;5034496;28;20136;-69
2022/06/17 06:51:09;;;;;;;4.88;2.20;;;23.00;71.60;;;;;;5034761;28;20040;-70
2022/06/17 06:53:34;;;;;;;5.68;2.20;;;23.10;71.50;;;;;;5034033;28;20037;-70
2022/06/17 06:56:01;;;;;;;8.95;2.30;;;23.10;71.20;;;;;;5034204;28;20026;-69
2022/06/17 06:58:27;;;;;;;5.22;2.15;;;23.10;71.20;;;;;;5034341;28;20108;-72
2022/06/17 07:00:55;;;;;;;5.53;2.25;;;23.20;71.10;;;;;;5033390;28;20449;-73
2022/06/17 07:03:21;;;;;;;9.02;2.45;;;23.20;71.20;;;;;;5027056;28;20036;-72
2022/06/17 07:05:53;;;;;;;9.70;2.20;;;23.30;71.10;;;;;;5030711;28;20022;-72
2022/06/17 07:08:25;;;;;;;5.07;1.80;;;23.40;70.90;;;;;;5033671;28;20021;-71
2022/06/17 07:10:53;;;;;;;4.03;2.00;;;23.40;70.60;;;;;;4998062;28;20030;-73
2022/06/17 07:13:21;;;;;;;5.65;1.85;;;23.50;70.50;;;;;;5027707;28;20525;-72
2022/06/17 07:15:47;;;;;;;5.88;1.88;;;23.50;70.50;;;;;;5010848;28;20080;-73
2022/06/17 07:18:26;;;;;;;6.78;2.17;;;23.50;70.40;;;;;;5028950;28;20025;-69
2022/06/17 07:20:58;;;;;;;3.85;1.90;;;23.60;70.60;;;;;;5023315;28;20056;-73
2022/06/17 07:23:29;;;;;;;9.25;2.67;;;23.70;70.00;;;;;;5028987;28;20101;-71
2022/06/17 07:25:56;;;;;;;7.32;2.10;;;23.80;70.00;;;;;;5022257;28;20037;-71
2022/06/17 07:28:22;;;;;;;4.72;1.70;;;23.80;69.90;;;;;;5007318;28;20026;-73
2022/06/17 07:30:51;;;;;;;5.65;2.53;;;23.90;69.70;;;;;;5024507;28;20029;-73
2022/06/17 07:33:18;;;;;;;4.43;1.88;;;23.90;69.70;;;;;;5006474;28;20061;-69
2022/06/17 07:35:46;;;;;;;4.72;1.92;;;24.00;69.60;;;;;;5017461;28;20110;-71
2022/06/17 07:41:01;;;;;;;4.55;1.65;;;24.10;69.40;;;;;;5011645;28;20056;-73
2022/06/17 07:43:27;;;;;;;6.40;2.08;;;24.20;69.20;;;;;;5006195;28;20037;-72
2022/06/17 07:45:53;;;;;;;5.35;1.90;;;24.30;68.50;;;;;;5030278;28;20041;-72
2022/06/17 07:48:19;;;;;;;5.32;2.00;;;24.40;68.30;;;;;;5031779;28;20471;-73
2022/06/17 07:50:45;;;;;;;3.97;1.83;;;24.50;68.00;;;;;;5004411;28;20040;-71
2022/06/17 07:53:13;;;;;;;7.40;2.13;;;24.50;68.10;;;;;;5028177;28;20021;-72
2022/06/17 07:55:40;;;;;;;5.43;1.83;;;24.40;68.10;;;;;;5027032;28;20033;-72
2022/06/17 07:58:06;;;;;;;7.78;2.15;;;24.30;68.50;;;;;;5027225;28;20045;-71
2022/06/17 08:00:44;;;;;;;4.97;1.88;;;24.30;68.60;;;;;;5031236;28;20040;-70
2022/06/17 08:03:10;;;;;;;5.50;1.55;;;24.30;68.80;;;;;;5023262;28;20030;-69
2022/06/17 08:05:37;;;;;;;6.07;1.92;;;24.30;68.60;;;;;;5022965;28;20401;-70
2022/06/17 08:08:04;;;;;;;18.25;2.22;;;24.40;68.50;;;;;;5028515;28;20013;-73
2022/06/17 08:10:33;;;;;;;6.70;1.95;;;24.40;68.60;;;;;;5024810;28;20029;-68
2022/06/17 08:12:59;;;;;;;6.38;1.60;;;24.40;68.30;;;;;;5029926;28;20131;-73
2022/06/17 08:15:26;;;;;;;6.13;2.10;;;24.50;68.40;;;;;;5023269;28;20176;-70
2022/06/17 08:17:52;;;;;;;3.00;1.67;;;24.50;68.20;;;;;;5025503;28;20029;-72
2022/06/17 08:20:21;;;;;;;3.25;1.73;;;24.60;68.20;;;;;;5025278;28;20033;-72
2022/06/17 08:22:47;;;;;;;5.75;1.90;;;24.60;67.90;;;;;;5026498;28;20049;-72
2022/06/17 08:25:13;;;;;;;3.83;1.70;;;24.70;68.50;;;;;;5005980;28;20504;-73
2022/06/17 08:27:43;;;;;;;6.65;2.15;;;24.60;67.70;;;;;;5025328;28;20029;-73
2022/06/17 08:30:09;;;;;;;4.20;1.80;;;24.70;67.50;;;;;;5029631;28;20037;-73
2022/06/17 08:32:55;;;;;;;6.03;1.83;;;24.80;67.20;;;;;;5030855;28;20075;-69
2022/06/17 08:35:26;;;;;;;4.13;2.13;;;24.80;67.40;;;;;;5028016;28;20120;-68
2022/06/17 08:38:00;;;;;;;4.50;1.65;;;24.80;67.20;;;;;;5028917;28;20024;-69
2022/06/17 08:40:55;;;;;;;5.47;2.03;;;24.80;67.10;;;;;;5021846;28;20025;-72
2022/06/17 08:43:49;;;;;;;8.10;1.95;;;24.80;67.10;;;;;;5026555;28;20029;-70
2022/06/17 08:46:20;;;;;;;4.68;2.00;;;24.90;66.80;;;;;;5008326;28;20037;-71
2022/06/17 08:49:11;;;;;;;6.75;1.77;;;24.90;66.70;;;;;;5019910;28;20120;-71
2022/06/17 08:51:56;;;;;;;7.68;1.90;;;24.90;66.30;;;;;;5026371;28;20029;-66
2022/06/17 08:54:25;;;;;;;4.63;2.03;;;24.90;65.50;;;;;;5026818;28;20560;-71
2022/06/17 08:57:13;;;;;;;9.30;2.17;;;24.90;65.10;;;;;;5028979;28;20041;-71
2022/06/17 09:00:11;;;;;;;6.50;2.05;;;24.90;65.30;;;;;;4981621;28;20513;-71
2022/06/17 09:02:36;;;;;;;5.18;2.00;;;25.00;65.20;;;;;;5026658;28;20499;-71
2022/06/17 09:05:35;;;;;;;5.10;1.73;;;25.00;65.10;;;;;;5034500;28;20077;-73
2022/06/17 09:08:28;;;;;;;8.63;1.90;;;25.00;65.20;;;;;;5026716;28;20037;-68
2022/06/17 09:11:14;;;;;;;4.75;2.15;;;25.10;65.40;;;;;;5029487;28;20391;-67
2022/06/17 09:13:52;;;;;;;6.05;1.55;;;25.10;65.70;;;;;;5017782;28;20033;-70
2022/06/17 09:16:28;;;;;;;5.80;1.83;;;25.10;65.50;;;;;;5035485;28;20021;-70
2022/06/17 09:19:00;;;;;;;5.35;1.70;;;25.20;65.40;;;;;;5017613;28;20018;-67
2022/06/17 09:21:34;;;;;;;3.90;1.90;;;25.20;65.60;;;;;;5029919;28;20116;-69
2022/06/17 09:24:06;;;;;;;6.45;2.08;;;25.20;65.80;;;;;;5033631;28;20025;-70
2022/06/17 09:26:44;;;;;;;5.57;1.70;;;25.20;65.90;;;;;;5030477;28;20025;-68
2022/06/17 09:29:33;;;;;;;6.72;1.95;;;25.20;66.00;;;;;;5030451;28;20025;-70
2022/06/17 09:32:10;;;;;;;5.57;2.30;;;25.30;66.40;;;;;;5031548;28;20032;-68
2022/06/17 09:34:48;;;;;;;8.07;2.15;;;25.20;66.60;;;;;;5034277;28;20099;-67
2022/06/17 09:37:26;;;;;;;4.72;1.88;;;25.30;66.80;;;;;;5032429;28;20048;-66
2022/06/17 09:40:17;;;;;;;7.40;1.95;;;25.30;67.50;;;;;;5034639;28;20160;-67
2022/06/17 09:42:53;;;;;;;11.40;1.85;;;25.30;66.90;;;;;;5025742;28;20037;-73
2022/06/17 09:45:32;;;;;;;5.03;1.75;;;25.30;67.30;;;;;;5033217;28;20165;-72
2022/06/17 09:48:10;;;;;;;4.68;1.90;;;25.30;68.00;;;;;;5016195;28;20427;-71
2022/06/17 09:50:48;;;;;;;8.52;1.95;;;25.30;67.30;;;;;;5033225;28;20479;-72
2022/06/17 09:53:21;;;;;;;8.25;1.85;;;25.40;67.30;;;;;;5035280;28;20083;-74
2022/06/17 09:55:59;;;;;;;8.35;1.92;;;25.40;67.30;;;;;;5034031;28;20489;-73
2022/06/17 09:58:44;;;;;;;4.68;1.80;;;25.40;67.40;;;;;;5020089;28;20026;-71
2022/06/17 10:01:11;;;;;;;5.93;1.58;;;25.40;67.40;;;;;;5031897;28;20093;-67
2022/06/17 10:03:38;;;;;;;6.97;2.13;;;25.40;67.30;;;;;;5033532;28;20030;-70
2022/06/17 10:06:38;;;;;;;3.83;1.67;;;25.50;66.40;;;;;;5032676;28;20112;-68
2022/06/17 10:09:22;;;;;;;4.75;1.50;;;25.50;66.40;;;;;;5033708;28;20465;-71
2022/06/17 10:12:06;;;;;;;3.78;1.77;;;25.50;65.80;;;;;;5015610;28;20029;-72
2022/06/17 10:14:53;;;;;;;6.70;1.80;;;25.50;65.30;;;;;;5034848;28;20042;-68
2022/06/17 10:20:34;;;;;;;4.53;1.48;;;25.40;65.10;;;;;;5034796;28;20445;-72
2022/06/17 10:23:37;;;;;;;5.40;1.75;;;25.50;65.00;;;;;;5031723;28;20056;-68
2022/06/17 10:26:13;;;;;;;7.63;1.92;;;25.50;64.90;;;;;;5031960;28;20529;-71
2022/06/17 10:28:50;;;;;;;8.18;2.00;;;25.50;64.90;;;;;;5028300;28;20021;-67
2022/06/17 10:31:33;;;;;;;4.50;1.67;;;25.50;64.40;;;;;;5026809;28;20496;-69
2022/06/17 10:34:04;;;;;;;4.15;1.60;;;25.50;64.10;;;;;;5031882;28;20037;-67
2022/06/17 10:36:31;;;;;;;4.13;1.52;;;25.50;63.80;;;;;;5033512;28;20043;-66
2022/06/17 10:39:00;;;;;;;5.10;1.63;;;25.60;64.00;;;;;;5032810;28;20065;-68
2022/06/17 10:41:26;;;;;;;7.05;1.65;;;25.60;63.90;;;;;;5032184;28;20033;-67
2022/06/17 10:43:52;;;;;;;4.47;1.85;;;25.60;63.90;;;;;;5007680;28;20025;-67
2022/06/17 10:46:32;;;;;;;6.65;1.85;;;25.60;63.90;;;;;;5015991;28;20033;-68
2022/06/17 10:49:16;;;;;;;6.78;2.00;;;25.60;64.30;;;;;;5018721;28;20100;-68
2022/06/17 10:51:43;;;;;;;5.38;1.80;;;25.70;64.70;;;;;;5031990;28;20026;-68
2022/06/17 10:54:26;;;;;;;4.53;1.88;;;25.70;65.10;;;;;;5033109;28;20037;-67
2022/06/17 10:57:12;;;;;;;6.72;2.50;;;25.70;65.60;;;;;;5030574;28;20382;-71
2022/06/17 10:59:41;;;;;;;5.70;2.30;;;25.70;65.70;;;;;;5024105;28;20040;-67
2022/06/17 11:02:30;;;;;;;8.18;2.88;;;25.70;65.80;;;;;;5032290;28;20442;-67
2022/06/17 11:05:00;;;;;;;6.10;2.47;;;25.70;65.80;;;;;;5029852;28;20390;-67
2022/06/17 11:07:31;;;;;;;9.98;2.20;;;25.70;65.70;;;;;;5028814;28;20038;-67
2022/06/17 11:10:26;;;;;;;8.60;2.33;;;25.70;65.60;;;;;;5027745;28;20025;-65
2022/06/17 11:13:12;;;;;;;11.77;2.65;;;25.80;65.00;;;;;;5024323;28;20061;-68
2022/06/17 11:15:51;;;;;;;4.97;2.17;;;25.90;65.10;;;;;;5030272;28;20029;-69
2022/06/17 11:18:32;;;;;;;7.22;2.15;;;25.80;64.80;;;;;;5032050;28;20422;-69
2022/06/17 11:21:04;;;;;;;5.38;2.28;;;25.90;64.90;;;;;;5032103;28;20100;-69
2022/06/17 11:23:35;;;;;;;8.77;2.97;;;25.90;65.10;;;;;;5028195;28;20470;-66
2022/06/17 11:26:09;;;;;;;6.73;1.77;;;25.90;65.20;;;;;;5033803;28;20477;-73
2022/06/17 11:28:39;;;;;;;8.25;2.28;;;25.90;65.10;;;;;;5033336;28;20383;-66
2022/06/17 11:31:10;;;;;;;10.88;2.67;;;25.90;65.10;;;;;;5028171;28;20039;-66
2022/06/17 11:33:53;;;;;;;12.32;2.40;;;25.90;65.30;;;;;;5028125;28;20056;-69
2022/06/17 11:36:20;;;;;;;6.47;2.47;;;25.90;65.40;;;;;;5025908;28;20478;-70
2022/06/17 11:38:47;;;;;;;5.65;2.08;;;25.90;65.60;;;;;;5016912;28;20037;-70
2022/06/17 11:41:29;;;;;;;9.30;2.58;;;25.90;65.60;;;;;;5031679;28;20083;-69
2022/06/17 11:44:04;;;;;;;12.52;2.50;;;25.90;65.60;;;;;;5010861;28;20041;-70
2022/06/17 11:46:33;;;;;;;11.65;3.00;;;25.90;65.70;;;;;;5023886;28;20025;-73
2022/06/17 11:49:10;;;;;;;6.93;2.65;;;25.90;65.50;;;;;;5031386;28;21592;-72
2022/06/17 11:51:39;;;;;;;6.43;2.28;;;25.90;65.40;;;;;;5031581;28;20072;-74
2022/06/17 11:54:23;;;;;;;6.28;2.58;;;25.90;65.50;;;;;;5030916;28;20044;-71
2022/06/17 11:56:49;;;;;;;9.52;2.15;;;25.90;65.60;;;;;;5031496;28;20072;-66
2022/06/17 11:59:22;;;;;;;7.50;2.40;;;26.00;65.70;;;;;;5032137;28;20108;-65
2022/06/17 12:01:49;;;;;;;6.60;2.03;;;26.00;65.90;;;;;;5031163;28;20025;-65
2022/06/17 12:04:36;;;;;;;10.52;2.33;;;26.00;66.30;;;;;;5033032;28;20422;-66
2022/06/17 12:07:18;;;;;;;7.13;2.22;;;26.00;65.80;;;;;;5031218;28;20056;-66
2022/06/17 12:09:46;;;;;;;5.72;2.30;;;26.00;65.80;;;;;;5031521;28;20037;-65
2022/06/17 12:12:15;;;;;;;5.63;2.28;;;26.00;65.80;;;;;;5032483;28;20528;-65
2022/06/17 12:15:01;;;;;;;11.30;2.40;;;26.00;65.80;;;;;;5032826;28;20124;-66
2022/06/17 12:17:29;;;;;;;8.02;2.22;;;26.00;65.70;;;;;;5029293;28;20109;-66
2022/06/17 12:19:55;;;;;;;5.60;2.30;;;26.00;65.70;;;;;;5031154;28;20025;-65
2022/06/17 12:22:35;;;;;;;9.65;2.22;;;26.00;65.50;;;;;;5015084;28;20025;-65
2022/06/17 12:25:29;;;;;;;6.38;1.90;;;26.00;65.20;;;;;;5032707;28;20033;-65
2022/06/17 12:28:05;;;;;;;7.53;2.42;;;25.90;65.60;;;;;;5033171;28;20479;-67
2022/06/17 12:31:02;;;;;;;7.72;2.00;;;26.00;65.60;;;;;;5029943;28;20079;-65
2022/06/17 12:33:38;;;;;;;7.55;2.28;;;26.00;65.60;;;;;;4980061;28;20049;-64
2022/06/17 12:36:20;;;;;;;6.28;1.73;;;26.00;65.30;;;;;;5032923;28;20119;-65
2022/06/17 12:39:01;;;;;;;6.18;2.50;;;26.10;64.70;;;;;;5028146;28;20069;-64
2022/06/17 12:41:27;;;;;;;4.93;2.10;;;26.10;65.20;;;;;;5035872;28;20164;-65
2022/06/17 12:44:06;;;;;;;5.63;1.95;;;26.00;65.40;;;;;;5037270;28;20060;-67
2022/06/17 12:47:02;;;;;;;4.50;1.63;;;26.00;65.20;;;;;;5036913;28;20025;-65
2022/06/17 12:53:14;;;;;;;5.90;2.00;;;25.90;65.40;;;;;;5013512;28;20068;-73
2022/06/17 12:55:57;;;;;;;4.32;1.67;;;25.90;65.50;;;;;;5028184;28;20412;-71
2022/06/17 12:58:54;;;;;;;7.70;1.70;;;26.00;65.30;;;;;;5031170;28;20030;-76
2022/06/17 13:01:32;;;;;;;5.95;2.20;;;26.00;65.10;;;;;;5026771;28;20045;-74
2022/06/17 13:04:16;;;;;;;4.60;1.98;;;26.00;65.10;;;;;;5030413;28;20022;-73
2022/06/17 13:07:19;;;;;;;5.57;1.80;;;26.00;65.30;;;;;;5031819;28;20029;-73
2022/06/17 13:10:39;;;;;;;6.97;1.85;;;26.00;65.40;;;;;;5013000;28;20205;-73
2022/06/17 13:12:55;;;;;;;8.35;1.90;;;26.00;65.20;;;;;;5018604;28;20104;-69
2022/06/17 13:15:25;;;;;;;4.35;1.70;;;26.00;65.10;;;;;;5031860;28;20021;-66
2022/06/17 13:18:04;;;;;;;8.57;1.83;;;26.00;65.90;;;;;;5012775;28;20034;-68
2022/06/17 13:20:45;;;;;;;5.65;1.48;;;26.10;65.10;;;;;;5020642;28;20410;-73
2022/06/17 13:23:26;;;;;;;3.72;1.58;;;26.00;65.10;;;;;;5024744;28;20083;-71
2022/06/17 13:26:04;;;;;;;6.90;2.00;;;26.00;65.10;;;;;;5029596;28;20025;-71
2022/06/17 13:28:49;;;;;;;3.80;1.65;;;26.00;65.10;;;;;;5029131;28;20411;-67